sensor_id;sensor_type;location;lat;lon;timestamp;P1;durP1;ratioP1;P2;durP2;ratioP2
36593;SDS011;22603;47.900;8.146;2024-01-30T00:00:01;4.97;;;1.63;;
36593;SDS011;22603;47.900;8.146;2024-01-30T00:02:49;3.90;;;1.57;;
36593;SDS011;22603;47.900;8.146;2024-01-30T00:05:36;3.53;;;1.40;;
36593;SDS011;22603;47.900;8.146;2024-01-30T00:08:23;1.63;;;1.10;;
36593;SDS011;22603;47.900;8.146;2024-01-30T00:11:11;4.20;;;1.67;;
36593;SDS011;22603;47.900;8.146;2024-01-30T00:13:58;3.40;;;1.27;;
36593;SDS011;22603;47.900;8.146;2024-01-30T00:16:45;4.37;;;1.50;;
36593;SDS011;22603;47.900;8.146;2024-01-30T00:19:31;3.43;;;1.40;;
36593;SDS011;22603;47.900;8.146;2024-01-30T00:22:19;2.13;;;1.10;;
36593;SDS011;22603;47.900;8.146;2024-01-30T00:25:05;4.40;;;1.57;;
36593;SDS011;22603;47.900;8.146;2024-01-30T00:27:54;3.53;;;1.40;;
36593;SDS011;22603;47.900;8.146;2024-01-30T00:30:41;6.43;;;1.43;;
36593;SDS011;22603;47.900;8.146;2024-01-30T00:33:27;2.33;;;1.17;;
36593;SDS011;22603;47.900;8.146;2024-01-30T00:36:14;4.23;;;1.40;;
36593;SDS011;22603;47.900;8.146;2024-01-30T00:39:01;8.30;;;1.47;;
36593;SDS011;22603;47.900;8.146;2024-01-30T00:41:51;5.07;;;1.70;;
36593;SDS011;22603;47.900;8.146;2024-01-30T00:44:38;4.53;;;1.80;;
36593;SDS011;22603;47.900;8.146;2024-01-30T00:47:25;4.63;;;1.43;;
36593;SDS011;22603;47.900;8.146;2024-01-30T00:50:14;2.73;;;1.43;;
36593;SDS011;22603;47.900;8.146;2024-01-30T00:53:01;2.53;;;1.20;;
36593;SDS011;22603;47.900;8.146;2024-01-30T00:55:47;2.97;;;1.33;;
36593;SDS011;22603;47.900;8.146;2024-01-30T00:58:34;2.30;;;1.00;;
36593;SDS011;22603;47.900;8.146;2024-01-30T01:01:22;3.43;;;1.33;;
36593;SDS011;22603;47.900;8.146;2024-01-30T01:04:08;4.43;;;1.50;;
36593;SDS011;22603;47.900;8.146;2024-01-30T01:06:55;3.03;;;1.40;;
36593;SDS011;22603;47.900;8.146;2024-01-30T01:09:42;6.67;;;1.90;;
36593;SDS011;22603;47.900;8.146;2024-01-30T01:12:28;13.13;;;4.47;;
36593;SDS011;22603;47.900;8.146;2024-01-30T01:15:15;11.23;;;3.77;;
36593;SDS011;22603;47.900;8.146;2024-01-30T01:18:04;7.97;;;2.90;;
36593;SDS011;22603;47.900;8.146;2024-01-30T01:20:51;7.43;;;2.07;;
36593;SDS011;22603;47.900;8.146;2024-01-30T01:23:37;9.23;;;3.47;;
36593;SDS011;22603;47.900;8.146;2024-01-30T01:26:24;7.17;;;2.17;;
36593;SDS011;22603;47.900;8.146;2024-01-30T01:29:11;4.90;;;1.80;;
36593;SDS011;22603;47.900;8.146;2024-01-30T01:31:58;4.33;;;1.57;;
36593;SDS011;22603;47.900;8.146;2024-01-30T01:34:46;2.50;;;1.17;;
36593;SDS011;22603;47.900;8.146;2024-01-30T01:37:33;1.27;;;1.00;;
36593;SDS011;22603;47.900;8.146;2024-01-30T01:40:20;3.33;;;1.50;;
36593;SDS011;22603;47.900;8.146;2024-01-30T01:43:08;2.03;;;1.17;;
36593;SDS011;22603;47.900;8.146;2024-01-30T01:45:54;1.83;;;1.10;;
36593;SDS011;22603;47.900;8.146;2024-01-30T01:48:41;4.20;;;2.07;;
36593;SDS011;22603;47.900;8.146;2024-01-30T01:51:31;5.77;;;1.50;;
36593;SDS011;22603;47.900;8.146;2024-01-30T01:54:20;2.37;;;1.07;;
36593;SDS011;22603;47.900;8.146;2024-01-30T01:57:07;3.83;;;1.47;;
36593;SDS011;22603;47.900;8.146;2024-01-30T01:59:54;2.33;;;1.17;;
36593;SDS011;22603;47.900;8.146;2024-01-30T02:02:41;3.47;;;1.37;;
36593;SDS011;22603;47.900;8.146;2024-01-30T02:05:31;2.77;;;1.10;;
36593;SDS011;22603;47.900;8.146;2024-01-30T02:08:19;2.33;;;1.20;;
36593;SDS011;22603;47.900;8.146;2024-01-30T02:11:06;3.50;;;1.57;;
36593;SDS011;22603;47.900;8.146;2024-01-30T02:13:54;3.97;;;1.33;;
36593;SDS011;22603;47.900;8.146;2024-01-30T02:16:40;2.20;;;1.10;;
36593;SDS011;22603;47.900;8.146;2024-01-30T02:19:27;1.53;;;1.17;;
36593;SDS011;22603;47.900;8.146;2024-01-30T02:22:15;3.17;;;1.50;;
36593;SDS011;22603;47.900;8.146;2024-01-30T02:25:03;3.83;;;1.80;;
36593;SDS011;22603;47.900;8.146;2024-01-30T02:27:50;5.40;;;1.37;;
36593;SDS011;22603;47.900;8.146;2024-01-30T02:30:37;4.03;;;1.20;;
36593;SDS011;22603;47.900;8.146;2024-01-30T02:33:23;3.50;;;1.40;;
36593;SDS011;22603;47.900;8.146;2024-01-30T02:36:10;5.50;;;1.37;;
36593;SDS011;22603;47.900;8.146;2024-01-30T02:38:58;3.77;;;1.10;;
36593;SDS011;22603;47.900;8.146;2024-01-30T02:41:44;3.30;;;0.93;;
36593;SDS011;22603;47.900;8.146;2024-01-30T02:44:31;3.10;;;1.47;;
36593;SDS011;22603;47.900;8.146;2024-01-30T02:47:18;7.40;;;1.30;;
36593;SDS011;22603;47.900;8.146;2024-01-30T02:50:05;2.70;;;1.30;;
36593;SDS011;22603;47.900;8.146;2024-01-30T02:52:52;2.03;;;1.10;;
36593;SDS011;22603;47.900;8.146;2024-01-30T02:55:41;2.47;;;1.10;;
36593;SDS011;22603;47.900;8.146;2024-01-30T02:58:28;4.37;;;1.53;;
36593;SDS011;22603;47.900;8.146;2024-01-30T03:01:14;2.87;;;1.10;;
36593;SDS011;22603;47.900;8.146;2024-01-30T03:04:01;4.67;;;1.50;;
36593;SDS011;22603;47.900;8.146;2024-01-30T03:06:48;3.23;;;1.43;;
36593;SDS011;22603;47.900;8.146;2024-01-30T03:09:36;3.47;;;1.40;;
36593;SDS011;22603;47.900;8.146;2024-01-30T03:12:24;2.60;;;0.90;;
36593;SDS011;22603;47.900;8.146;2024-01-30T03:15:11;2.67;;;1.30;;
36593;SDS011;22603;47.900;8.146;2024-01-30T03:17:57;2.13;;;1.30;;
36593;SDS011;22603;47.900;8.146;2024-01-30T03:20:44;2.97;;;1.33;;
36593;SDS011;22603;47.900;8.146;2024-01-30T03:23:31;2.53;;;1.43;;
36593;SDS011;22603;47.900;8.146;2024-01-30T03:26:18;1.37;;;1.10;;
36593;SDS011;22603;47.900;8.146;2024-01-30T03:29:06;4.07;;;1.50;;
36593;SDS011;22603;47.900;8.146;2024-01-30T03:31:53;1.93;;;1.03;;
36593;SDS011;22603;47.900;8.146;2024-01-30T03:34:39;3.90;;;1.30;;
36593;SDS011;22603;47.900;8.146;2024-01-30T03:37:26;3.40;;;1.40;;
36593;SDS011;22603;47.900;8.146;2024-01-30T03:40:12;3.00;;;1.23;;
36593;SDS011;22603;47.900;8.146;2024-01-30T03:43:00;3.33;;;1.50;;
36593;SDS011;22603;47.900;8.146;2024-01-30T03:45:48;3.30;;;1.67;;
36593;SDS011;22603;47.900;8.146;2024-01-30T03:48:35;2.83;;;1.20;;
36593;SDS011;22603;47.900;8.146;2024-01-30T03:51:22;2.27;;;1.40;;
36593;SDS011;22603;47.900;8.146;2024-01-30T03:54:08;3.23;;;1.70;;
36593;SDS011;22603;47.900;8.146;2024-01-30T03:56:55;1.70;;;1.27;;
36593;SDS011;22603;47.900;8.146;2024-01-30T03:59:42;3.07;;;1.40;;
36593;SDS011;22603;47.900;8.146;2024-01-30T04:02:30;3.93;;;1.43;;
36593;SDS011;22603;47.900;8.146;2024-01-30T04:05:17;3.03;;;1.57;;
36593;SDS011;22603;47.900;8.146;2024-01-30T04:08:04;1.87;;;1.13;;
36593;SDS011;22603;47.900;8.146;2024-01-30T04:10:51;2.17;;;1.00;;
36593;SDS011;22603;47.900;8.146;2024-01-30T04:13:37;3.70;;;1.73;;
36593;SDS011;22603;47.900;8.146;2024-01-30T04:16:24;4.50;;;1.17;;
36593;SDS011;22603;47.900;8.146;2024-01-30T04:19:12;2.90;;;1.17;;
36593;SDS011;22603;47.900;8.146;2024-01-30T04:21:59;4.37;;;1.83;;
36593;SDS011;22603;47.900;8.146;2024-01-30T04:24:45;3.00;;;1.43;;
36593;SDS011;22603;47.900;8.146;2024-01-30T04:27:32;2.90;;;1.20;;
36593;SDS011;22603;47.900;8.146;2024-01-30T04:30:19;2.57;;;1.20;;
36593;SDS011;22603;47.900;8.146;2024-01-30T04:33:06;2.33;;;1.10;;
36593;SDS011;22603;47.900;8.146;2024-01-30T04:35:54;2.20;;;1.20;;
36593;SDS011;22603;47.900;8.146;2024-01-30T04:38:41;4.10;;;1.50;;
36593;SDS011;22603;47.900;8.146;2024-01-30T04:41:27;2.70;;;1.37;;
36593;SDS011;22603;47.900;8.146;2024-01-30T04:44:16;7.93;;;2.67;;
36593;SDS011;22603;47.900;8.146;2024-01-30T04:47:03;10.43;;;3.63;;
36593;SDS011;22603;47.900;8.146;2024-01-30T04:49:53;6.30;;;2.03;;
36593;SDS011;22603;47.900;8.146;2024-01-30T04:52:41;11.03;;;4.23;;
36593;SDS011;22603;47.900;8.146;2024-01-30T04:55:28;9.20;;;2.70;;
36593;SDS011;22603;47.900;8.146;2024-01-30T04:58:15;7.63;;;2.73;;
36593;SDS011;22603;47.900;8.146;2024-01-30T05:01:02;10.23;;;2.57;;
36593;SDS011;22603;47.900;8.146;2024-01-30T05:03:49;1.67;;;1.17;;
36593;SDS011;22603;47.900;8.146;2024-01-30T05:06:36;5.17;;;1.20;;
36593;SDS011;22603;47.900;8.146;2024-01-30T05:09:24;6.33;;;1.47;;
36593;SDS011;22603;47.900;8.146;2024-01-30T05:12:11;3.03;;;1.37;;
36593;SDS011;22603;47.900;8.146;2024-01-30T05:14:58;4.73;;;1.43;;
36593;SDS011;22603;47.900;8.146;2024-01-30T05:17:45;3.23;;;1.43;;
36593;SDS011;22603;47.900;8.146;2024-01-30T05:20:31;4.27;;;1.37;;
36593;SDS011;22603;47.900;8.146;2024-01-30T05:23:18;5.20;;;1.33;;
36593;SDS011;22603;47.900;8.146;2024-01-30T05:26:06;4.00;;;1.53;;
36593;SDS011;22603;47.900;8.146;2024-01-30T05:28:52;6.60;;;2.13;;
36593;SDS011;22603;47.900;8.146;2024-01-30T05:31:39;4.60;;;1.57;;
36593;SDS011;22603;47.900;8.146;2024-01-30T05:34:25;3.63;;;1.40;;
36593;SDS011;22603;47.900;8.146;2024-01-30T05:37:13;3.67;;;1.90;;
36593;SDS011;22603;47.900;8.146;2024-01-30T05:40:02;2.50;;;1.03;;
36593;SDS011;22603;47.900;8.146;2024-01-30T05:42:51;6.67;;;1.60;;
36593;SDS011;22603;47.900;8.146;2024-01-30T05:45:38;3.63;;;1.67;;
36593;SDS011;22603;47.900;8.146;2024-01-30T05:48:25;5.57;;;1.80;;
36593;SDS011;22603;47.900;8.146;2024-01-30T05:51:11;5.23;;;2.10;;
36593;SDS011;22603;47.900;8.146;2024-01-30T05:53:58;3.37;;;1.73;;
36593;SDS011;22603;47.900;8.146;2024-01-30T05:56:44;3.70;;;1.13;;
36593;SDS011;22603;47.900;8.146;2024-01-30T05:59:33;2.33;;;1.30;;
36593;SDS011;22603;47.900;8.146;2024-01-30T06:02:25;1.87;;;1.00;;
36593;SDS011;22603;47.900;8.146;2024-01-30T06:05:12;3.60;;;1.90;;
36593;SDS011;22603;47.900;8.146;2024-01-30T06:07:59;3.43;;;1.40;;
36593;SDS011;22603;47.900;8.146;2024-01-30T06:10:45;14.70;;;2.10;;
36593;SDS011;22603;47.900;8.146;2024-01-30T06:13:32;2.30;;;1.70;;
36593;SDS011;22603;47.900;8.146;2024-01-30T06:16:21;3.53;;;1.57;;
36593;SDS011;22603;47.900;8.146;2024-01-30T06:19:08;2.13;;;1.40;;
36593;SDS011;22603;47.900;8.146;2024-01-30T06:21:54;2.73;;;1.33;;
36593;SDS011;22603;47.900;8.146;2024-01-30T06:24:41;2.83;;;1.23;;
36593;SDS011;22603;47.900;8.146;2024-01-30T06:27:30;3.97;;;2.17;;
36593;SDS011;22603;47.900;8.146;2024-01-30T06:30:16;4.07;;;1.63;;
36593;SDS011;22603;47.900;8.146;2024-01-30T06:33:05;3.13;;;1.50;;
36593;SDS011;22603;47.900;8.146;2024-01-30T06:35:52;4.80;;;1.50;;
36593;SDS011;22603;47.900;8.146;2024-01-30T06:38:40;3.33;;;1.23;;
36593;SDS011;22603;47.900;8.146;2024-01-30T06:41:29;6.10;;;1.87;;
36593;SDS011;22603;47.900;8.146;2024-01-30T06:44:16;6.33;;;2.10;;
36593;SDS011;22603;47.900;8.146;2024-01-30T06:47:02;5.63;;;1.93;;
36593;SDS011;22603;47.900;8.146;2024-01-30T06:49:51;9.13;;;2.30;;
36593;SDS011;22603;47.900;8.146;2024-01-30T06:52:38;4.17;;;1.80;;
36593;SDS011;22603;47.900;8.146;2024-01-30T06:55:27;3.30;;;1.43;;
36593;SDS011;22603;47.900;8.146;2024-01-30T06:58:14;9.50;;;1.80;;
36593;SDS011;22603;47.900;8.146;2024-01-30T07:01:01;6.43;;;1.93;;
36593;SDS011;22603;47.900;8.146;2024-01-30T07:03:48;5.00;;;2.20;;
36593;SDS011;22603;47.900;8.146;2024-01-30T07:06:36;4.50;;;1.87;;
36593;SDS011;22603;47.900;8.146;2024-01-30T07:09:23;4.10;;;1.93;;
36593;SDS011;22603;47.900;8.146;2024-01-30T07:12:10;6.67;;;2.67;;
36593;SDS011;22603;47.900;8.146;2024-01-30T07:14:56;14.00;;;2.77;;
36593;SDS011;22603;47.900;8.146;2024-01-30T07:17:44;14.00;;;3.93;;
36593;SDS011;22603;47.900;8.146;2024-01-30T07:20:31;9.83;;;3.30;;
36593;SDS011;22603;47.900;8.146;2024-01-30T07:23:19;10.47;;;3.00;;
36593;SDS011;22603;47.900;8.146;2024-01-30T07:26:06;10.93;;;3.53;;
36593;SDS011;22603;47.900;8.146;2024-01-30T07:28:53;11.73;;;4.17;;
36593;SDS011;22603;47.900;8.146;2024-01-30T07:31:40;10.77;;;3.63;;
36593;SDS011;22603;47.900;8.146;2024-01-30T07:34:28;20.50;;;7.83;;
36593;SDS011;22603;47.900;8.146;2024-01-30T07:37:18;14.70;;;4.53;;
36593;SDS011;22603;47.900;8.146;2024-01-30T07:40:07;25.57;;;6.47;;
36593;SDS011;22603;47.900;8.146;2024-01-30T07:42:55;16.13;;;5.20;;
36593;SDS011;22603;47.900;8.146;2024-01-30T07:45:42;15.00;;;5.80;;
36593;SDS011;22603;47.900;8.146;2024-01-30T07:48:28;13.47;;;3.77;;
36593;SDS011;22603;47.900;8.146;2024-01-30T07:51:15;10.57;;;3.43;;
36593;SDS011;22603;47.900;8.146;2024-01-30T07:54:02;11.33;;;3.87;;
36593;SDS011;22603;47.900;8.146;2024-01-30T07:56:50;15.45;;;5.35;;
36593;SDS011;22603;47.900;8.146;2024-01-30T07:59:36;16.37;;;6.30;;
36593;SDS011;22603;47.900;8.146;2024-01-30T08:02:23;17.17;;;5.17;;
36593;SDS011;22603;47.900;8.146;2024-01-30T08:05:10;14.10;;;5.10;;
36593;SDS011;22603;47.900;8.146;2024-01-30T08:07:57;15.93;;;5.40;;
36593;SDS011;22603;47.900;8.146;2024-01-30T08:10:48;11.87;;;4.23;;
36593;SDS011;22603;47.900;8.146;2024-01-30T08:13:36;12.57;;;4.87;;
36593;SDS011;22603;47.900;8.146;2024-01-30T08:16:26;15.00;;;3.60;;
36593;SDS011;22603;47.900;8.146;2024-01-30T08:19:16;10.27;;;2.60;;
36593;SDS011;22603;47.900;8.146;2024-01-30T08:22:03;5.80;;;1.93;;
36593;SDS011;22603;47.900;8.146;2024-01-30T08:24:50;3.83;;;1.77;;
36593;SDS011;22603;47.900;8.146;2024-01-30T08:27:38;5.40;;;2.13;;
36593;SDS011;22603;47.900;8.146;2024-01-30T08:30:26;8.43;;;2.57;;
36593;SDS011;22603;47.900;8.146;2024-01-30T08:33:13;14.67;;;3.57;;
36593;SDS011;22603;47.900;8.146;2024-01-30T08:35:59;5.50;;;2.23;;
36593;SDS011;22603;47.900;8.146;2024-01-30T08:38:46;7.63;;;2.20;;
36593;SDS011;22603;47.900;8.146;2024-01-30T08:41:32;7.33;;;2.90;;
36593;SDS011;22603;47.900;8.146;2024-01-30T08:44:20;7.97;;;2.50;;
36593;SDS011;22603;47.900;8.146;2024-01-30T08:47:08;4.53;;;1.90;;
36593;SDS011;22603;47.900;8.146;2024-01-30T08:49:55;7.17;;;2.77;;
36593;SDS011;22603;47.900;8.146;2024-01-30T08:52:42;7.50;;;2.67;;
36593;SDS011;22603;47.900;8.146;2024-01-30T08:55:31;5.97;;;2.40;;
36593;SDS011;22603;47.900;8.146;2024-01-30T08:58:18;6.67;;;2.50;;
36593;SDS011;22603;47.900;8.146;2024-01-30T09:01:05;6.33;;;2.30;;
36593;SDS011;22603;47.900;8.146;2024-01-30T09:03:54;6.03;;;2.10;;
36593;SDS011;22603;47.900;8.146;2024-01-30T09:06:41;6.43;;;2.73;;
36593;SDS011;22603;47.900;8.146;2024-01-30T09:09:27;5.93;;;2.40;;
36593;SDS011;22603;47.900;8.146;2024-01-30T09:12:14;8.50;;;2.63;;
36593;SDS011;22603;47.900;8.146;2024-01-30T09:15:01;5.87;;;2.13;;
36593;SDS011;22603;47.900;8.146;2024-01-30T09:17:49;8.23;;;2.77;;
36593;SDS011;22603;47.900;8.146;2024-01-30T09:20:37;8.27;;;2.80;;
36593;SDS011;22603;47.900;8.146;2024-01-30T09:23:24;5.93;;;2.60;;
36593;SDS011;22603;47.900;8.146;2024-01-30T09:26:13;6.63;;;2.23;;
36593;SDS011;22603;47.900;8.146;2024-01-30T09:28:59;5.27;;;2.10;;
36593;SDS011;22603;47.900;8.146;2024-01-30T09:31:46;6.43;;;2.20;;
36593;SDS011;22603;47.900;8.146;2024-01-30T09:34:33;7.07;;;2.20;;
36593;SDS011;22603;47.900;8.146;2024-01-30T09:37:21;6.43;;;2.30;;
36593;SDS011;22603;47.900;8.146;2024-01-30T09:40:11;9.10;;;3.07;;
36593;SDS011;22603;47.900;8.146;2024-01-30T09:42:58;6.20;;;1.87;;
36593;SDS011;22603;47.900;8.146;2024-01-30T09:45:46;3.40;;;1.53;;
36593;SDS011;22603;47.900;8.146;2024-01-30T09:48:34;4.90;;;1.80;;
36593;SDS011;22603;47.900;8.146;2024-01-30T09:51:21;6.30;;;1.80;;
36593;SDS011;22603;47.900;8.146;2024-01-30T09:54:10;7.10;;;2.33;;
36593;SDS011;22603;47.900;8.146;2024-01-30T09:57:00;3.67;;;1.67;;
36593;SDS011;22603;47.900;8.146;2024-01-30T09:59:47;5.73;;;2.10;;
36593;SDS011;22603;47.900;8.146;2024-01-30T10:02:36;3.97;;;1.63;;
36593;SDS011;22603;47.900;8.146;2024-01-30T10:05:25;6.03;;;1.87;;
36593;SDS011;22603;47.900;8.146;2024-01-30T10:08:13;6.27;;;2.13;;
36593;SDS011;22603;47.900;8.146;2024-01-30T10:11:05;4.97;;;1.70;;
36593;SDS011;22603;47.900;8.146;2024-01-30T10:13:53;10.10;;;2.77;;
36593;SDS011;22603;47.900;8.146;2024-01-30T10:16:40;9.10;;;2.10;;
36593;SDS011;22603;47.900;8.146;2024-01-30T10:19:27;7.07;;;2.93;;
36593;SDS011;22603;47.900;8.146;2024-01-30T10:22:14;5.00;;;1.93;;
36593;SDS011;22603;47.900;8.146;2024-01-30T10:25:01;8.60;;;2.53;;
36593;SDS011;22603;47.900;8.146;2024-01-30T10:27:53;7.13;;;2.30;;
36593;SDS011;22603;47.900;8.146;2024-01-30T10:30:40;6.80;;;2.63;;
36593;SDS011;22603;47.900;8.146;2024-01-30T10:33:27;5.80;;;2.53;;
36593;SDS011;22603;47.900;8.146;2024-01-30T10:36:15;6.60;;;2.27;;
36593;SDS011;22603;47.900;8.146;2024-01-30T10:39:05;5.60;;;2.23;;
36593;SDS011;22603;47.900;8.146;2024-01-30T10:41:53;7.93;;;2.20;;
36593;SDS011;22603;47.900;8.146;2024-01-30T10:44:48;5.37;;;1.77;;
36593;SDS011;22603;47.900;8.146;2024-01-30T10:47:43;5.43;;;1.70;;
36593;SDS011;22603;47.900;8.146;2024-01-30T10:50:37;4.47;;;1.70;;
36593;SDS011;22603;47.900;8.146;2024-01-30T10:53:38;4.20;;;1.57;;
36593;SDS011;22603;47.900;8.146;2024-01-30T10:56:25;7.10;;;1.87;;
36593;SDS011;22603;47.900;8.146;2024-01-30T10:59:13;5.47;;;1.60;;
36593;SDS011;22603;47.900;8.146;2024-01-30T11:02:02;2.93;;;1.20;;
36593;SDS011;22603;47.900;8.146;2024-01-30T11:04:49;6.10;;;1.80;;
36593;SDS011;22603;47.900;8.146;2024-01-30T11:07:40;9.90;;;3.10;;
36593;SDS011;22603;47.900;8.146;2024-01-30T11:10:28;4.20;;;1.40;;
36593;SDS011;22603;47.900;8.146;2024-01-30T11:13:18;1.40;;;1.07;;
36593;SDS011;22603;47.900;8.146;2024-01-30T11:16:06;4.60;;;1.50;;
36593;SDS011;22603;47.900;8.146;2024-01-30T11:18:54;8.13;;;1.30;;
36593;SDS011;22603;47.900;8.146;2024-01-30T11:21:46;4.87;;;1.80;;
36593;SDS011;22603;47.900;8.146;2024-01-30T11:24:39;2.53;;;1.23;;
36593;SDS011;22603;47.900;8.146;2024-01-30T11:27:27;3.43;;;1.10;;
36593;SDS011;22603;47.900;8.146;2024-01-30T11:30:23;3.83;;;1.40;;
36593;SDS011;22603;47.900;8.146;2024-01-30T11:33:10;6.40;;;1.60;;
36593;SDS011;22603;47.900;8.146;2024-01-30T11:35:59;3.70;;;1.10;;
36593;SDS011;22603;47.900;8.146;2024-01-30T11:38:47;3.20;;;1.10;;
36593;SDS011;22603;47.900;8.146;2024-01-30T11:41:34;3.50;;;1.37;;
36593;SDS011;22603;47.900;8.146;2024-01-30T11:44:23;2.83;;;1.40;;
36593;SDS011;22603;47.900;8.146;2024-01-30T11:47:10;2.10;;;1.10;;
36593;SDS011;22603;47.900;8.146;2024-01-30T11:49:57;2.87;;;1.23;;
36593;SDS011;22603;47.900;8.146;2024-01-30T11:52:47;2.30;;;1.10;;
36593;SDS011;22603;47.900;8.146;2024-01-30T11:55:34;2.80;;;1.10;;
36593;SDS011;22603;47.900;8.146;2024-01-30T11:58:24;7.10;;;1.50;;
36593;SDS011;22603;47.900;8.146;2024-01-30T12:01:11;2.37;;;1.20;;
36593;SDS011;22603;47.900;8.146;2024-01-30T12:03:58;3.50;;;1.20;;
36593;SDS011;22603;47.900;8.146;2024-01-30T12:06:44;2.07;;;1.10;;
36593;SDS011;22603;47.900;8.146;2024-01-30T12:09:38;3.77;;;1.30;;
36593;SDS011;22603;47.900;8.146;2024-01-30T12:12:26;4.18;;;1.50;;
36593;SDS011;22603;47.900;8.146;2024-01-30T12:15:13;4.75;;;1.13;;
36593;SDS011;22603;47.900;8.146;2024-01-30T12:18:04;2.67;;;1.23;;
36593;SDS011;22603;47.900;8.146;2024-01-30T12:20:58;2.03;;;1.13;;
36593;SDS011;22603;47.900;8.146;2024-01-30T12:23:46;2.53;;;1.17;;
36593;SDS011;22603;47.900;8.146;2024-01-30T12:26:34;6.70;;;1.85;;
36593;SDS011;22603;47.900;8.146;2024-01-30T12:29:21;3.67;;;1.35;;
36593;SDS011;22603;47.900;8.146;2024-01-30T12:32:07;2.25;;;1.17;;
36593;SDS011;22603;47.900;8.146;2024-01-30T12:34:54;3.67;;;1.30;;
36593;SDS011;22603;47.900;8.146;2024-01-30T12:37:46;2.53;;;1.20;;
36593;SDS011;22603;47.900;8.146;2024-01-30T12:40:34;3.30;;;1.25;;
36593;SDS011;22603;47.900;8.146;2024-01-30T12:43:26;2.55;;;0.93;;
36593;SDS011;22603;47.900;8.146;2024-01-30T12:46:25;3.88;;;1.52;;
36593;SDS011;22603;47.900;8.146;2024-01-30T12:49:14;3.17;;;1.60;;
36593;SDS011;22603;47.900;8.146;2024-01-30T12:52:01;3.38;;;1.40;;
36593;SDS011;22603;47.900;8.146;2024-01-30T12:54:48;3.78;;;1.30;;
36593;SDS011;22603;47.900;8.146;2024-01-30T12:57:35;3.40;;;1.08;;
36593;SDS011;22603;47.900;8.146;2024-01-30T13:00:25;4.50;;;1.40;;
36593;SDS011;22603;47.900;8.146;2024-01-30T13:03:12;3.70;;;1.10;;
36593;SDS011;22603;47.900;8.146;2024-01-30T13:05:59;6.97;;;1.60;;
36593;SDS011;22603;47.900;8.146;2024-01-30T13:08:46;3.08;;;1.40;;
36593;SDS011;22603;47.900;8.146;2024-01-30T13:11:33;3.72;;;1.55;;
36593;SDS011;22603;47.900;8.146;2024-01-30T13:14:20;3.05;;;1.40;;
36593;SDS011;22603;47.900;8.146;2024-01-30T13:17:08;3.92;;;1.42;;
36593;SDS011;22603;47.900;8.146;2024-01-30T13:19:55;2.60;;;1.20;;
36593;SDS011;22603;47.900;8.146;2024-01-30T13:22:54;2.92;;;1.30;;
36593;SDS011;22603;47.900;8.146;2024-01-30T13:25:41;3.28;;;1.35;;
36593;SDS011;22603;47.900;8.146;2024-01-30T13:28:27;5.50;;;1.33;;
36593;SDS011;22603;47.900;8.146;2024-01-30T13:31:16;4.55;;;1.40;;
36593;SDS011;22603;47.900;8.146;2024-01-30T13:34:05;4.00;;;1.40;;
36593;SDS011;22603;47.900;8.146;2024-01-30T13:36:53;2.80;;;1.38;;
36593;SDS011;22603;47.900;8.146;2024-01-30T13:39:40;6.82;;;1.50;;
36593;SDS011;22603;47.900;8.146;2024-01-30T13:42:27;3.95;;;1.30;;
36593;SDS011;22603;47.900;8.146;2024-01-30T13:45:14;4.15;;;1.60;;
36593;SDS011;22603;47.900;8.146;2024-01-30T13:48:01;5.85;;;1.80;;
36593;SDS011;22603;47.900;8.146;2024-01-30T13:50:50;5.05;;;1.60;;
36593;SDS011;22603;47.900;8.146;2024-01-30T13:53:39;4.10;;;1.33;;
36593;SDS011;22603;47.900;8.146;2024-01-30T13:56:26;4.22;;;1.55;;
36593;SDS011;22603;47.900;8.146;2024-01-30T13:59:13;5.37;;;1.30;;
36593;SDS011;22603;47.900;8.146;2024-01-30T14:01:59;4.40;;;1.47;;
36593;SDS011;22603;47.900;8.146;2024-01-30T14:04:46;3.87;;;1.50;;
36593;SDS011;22603;47.900;8.146;2024-01-30T14:07:35;3.47;;;1.25;;
36593;SDS011;22603;47.900;8.146;2024-01-30T14:10:23;2.97;;;1.30;;
36593;SDS011;22603;47.900;8.146;2024-01-30T14:13:10;6.10;;;1.60;;
36593;SDS011;22603;47.900;8.146;2024-01-30T14:15:57;5.20;;;1.60;;
36593;SDS011;22603;47.900;8.146;2024-01-30T14:18:44;3.33;;;1.60;;
36593;SDS011;22603;47.900;8.146;2024-01-30T14:21:31;10.27;;;2.30;;
36593;SDS011;22603;47.900;8.146;2024-01-30T14:24:19;5.27;;;1.43;;
36593;SDS011;22603;47.900;8.146;2024-01-30T14:27:06;4.23;;;1.70;;
36593;SDS011;22603;47.900;8.146;2024-01-30T14:29:53;2.90;;;1.60;;
36593;SDS011;22603;47.900;8.146;2024-01-30T14:32:41;4.23;;;1.40;;
36593;SDS011;22603;47.900;8.146;2024-01-30T14:35:30;3.27;;;1.40;;
36593;SDS011;22603;47.900;8.146;2024-01-30T14:38:17;4.57;;;1.73;;
36593;SDS011;22603;47.900;8.146;2024-01-30T14:41:05;3.43;;;1.60;;
36593;SDS011;22603;47.900;8.146;2024-01-30T14:43:52;4.47;;;1.87;;
36593;SDS011;22603;47.900;8.146;2024-01-30T14:46:38;5.80;;;1.57;;
36593;SDS011;22603;47.900;8.146;2024-01-30T14:49:25;5.33;;;1.57;;
36593;SDS011;22603;47.900;8.146;2024-01-30T14:52:14;3.77;;;1.50;;
36593;SDS011;22603;47.900;8.146;2024-01-30T14:55:00;3.17;;;1.30;;
36593;SDS011;22603;47.900;8.146;2024-01-30T14:57:52;4.23;;;1.57;;
36593;SDS011;22603;47.900;8.146;2024-01-30T15:00:39;3.43;;;1.33;;
36593;SDS011;22603;47.900;8.146;2024-01-30T15:03:26;2.77;;;1.10;;
36593;SDS011;22603;47.900;8.146;2024-01-30T15:06:14;5.13;;;1.47;;
36593;SDS011;22603;47.900;8.146;2024-01-30T15:09:01;3.03;;;1.27;;
36593;SDS011;22603;47.900;8.146;2024-01-30T15:11:51;3.63;;;1.43;;
36593;SDS011;22603;47.900;8.146;2024-01-30T15:14:39;3.83;;;1.30;;
36593;SDS011;22603;47.900;8.146;2024-01-30T15:17:31;4.93;;;1.50;;
36593;SDS011;22603;47.900;8.146;2024-01-30T15:20:18;4.10;;;1.30;;
36593;SDS011;22603;47.900;8.146;2024-01-30T15:23:06;2.40;;;1.67;;
36593;SDS011;22603;47.900;8.146;2024-01-30T15:25:53;3.53;;;1.40;;
36593;SDS011;22603;47.900;8.146;2024-01-30T15:28:40;4.57;;;1.47;;
36593;SDS011;22603;47.900;8.146;2024-01-30T15:31:28;4.33;;;1.53;;
36593;SDS011;22603;47.900;8.146;2024-01-30T15:34:15;4.43;;;1.60;;
36593;SDS011;22603;47.900;8.146;2024-01-30T15:37:02;4.27;;;1.60;;
36593;SDS011;22603;47.900;8.146;2024-01-30T15:39:49;8.30;;;1.63;;
36593;SDS011;22603;47.900;8.146;2024-01-30T15:42:36;3.23;;;1.60;;
36593;SDS011;22603;47.900;8.146;2024-01-30T15:45:25;10.30;;;2.00;;
36593;SDS011;22603;47.900;8.146;2024-01-30T15:48:14;3.70;;;1.37;;
36593;SDS011;22603;47.900;8.146;2024-01-30T15:51:02;2.87;;;1.40;;
36593;SDS011;22603;47.900;8.146;2024-01-30T15:53:50;4.17;;;1.40;;
36593;SDS011;22603;47.900;8.146;2024-01-30T15:56:37;5.20;;;1.90;;
36593;SDS011;22603;47.900;8.146;2024-01-30T15:59:23;4.63;;;1.80;;
36593;SDS011;22603;47.900;8.146;2024-01-30T16:02:11;4.20;;;1.60;;
36593;SDS011;22603;47.900;8.146;2024-01-30T16:05:01;4.70;;;1.80;;
36593;SDS011;22603;47.900;8.146;2024-01-30T16:07:48;4.90;;;1.60;;
36593;SDS011;22603;47.900;8.146;2024-01-30T16:10:35;3.80;;;1.53;;
36593;SDS011;22603;47.900;8.146;2024-01-30T16:13:21;6.10;;;2.17;;
36593;SDS011;22603;47.900;8.146;2024-01-30T16:16:08;4.97;;;1.80;;
36593;SDS011;22603;47.900;8.146;2024-01-30T16:18:56;4.67;;;1.80;;
36593;SDS011;22603;47.900;8.146;2024-01-30T16:21:44;7.33;;;2.00;;
36593;SDS011;22603;47.900;8.146;2024-01-30T16:24:31;6.17;;;1.90;;
36593;SDS011;22603;47.900;8.146;2024-01-30T16:27:17;5.33;;;2.00;;
36593;SDS011;22603;47.900;8.146;2024-01-30T16:30:04;4.10;;;1.60;;
36593;SDS011;22603;47.900;8.146;2024-01-30T16:32:52;7.27;;;1.70;;
36593;SDS011;22603;47.900;8.146;2024-01-30T16:35:39;5.63;;;1.80;;
36593;SDS011;22603;47.900;8.146;2024-01-30T16:38:32;4.77;;;1.47;;
36593;SDS011;22603;47.900;8.146;2024-01-30T16:41:19;4.33;;;1.73;;
36593;SDS011;22603;47.900;8.146;2024-01-30T16:44:06;8.80;;;1.93;;
36593;SDS011;22603;47.900;8.146;2024-01-30T16:46:53;3.83;;;1.40;;